createdAt,value
2022-10-05T00:02:25.660Z,11.07
2022-10-05T00:04:54.963Z,10.62
2022-10-05T00:07:24.910Z,10.92
2022-10-05T00:09:55.672Z,10.84
2022-10-05T00:12:26.241Z,10.57
2022-10-05T00:14:57.705Z,10.94
2022-10-05T00:17:27.211Z,10.54
2022-10-05T00:19:54.166Z,10.70
2022-10-05T00:22:32.651Z,10.91
2022-10-05T00:25:01.751Z,10.74
2022-10-05T00:27:34.091Z,10.59
2022-10-05T00:30:10.350Z,10.64
2022-10-05T00:32:36.955Z,10.86
2022-10-05T00:35:03.763Z,10.85
2022-10-05T00:37:30.402Z,10.66
2022-10-05T00:39:57.174Z,10.36
2022-10-05T00:42:35.998Z,10.20
2022-10-05T00:45:15.834Z,10.15
2022-10-05T00:48:08.103Z,9.95
2022-10-05T00:51:08.427Z,10.25
2022-10-05T00:53:58.109Z,10.18
2022-10-05T00:56:52.634Z,10.38
2022-10-05T00:59:36.774Z,10.40
2022-10-05T01:02:15.154Z,10.14
2022-10-05T01:04:56.688Z,10.19
2022-10-05T01:07:43.027Z,9.96
2022-10-05T01:10:38.343Z,9.96
2022-10-05T01:13:18.819Z,9.84
2022-10-05T01:16:19.253Z,10.11
2022-10-05T01:18:51.742Z,9.99
2022-10-05T01:21:23.294Z,10.02
2022-10-05T01:23:52.684Z,9.79
2022-10-05T01:26:50.741Z,9.88
2022-10-05T01:29:28.802Z,9.99
2022-10-05T01:32:16.599Z,10.02
2022-10-05T01:34:50.981Z,10.11
2022-10-05T01:37:32.679Z,9.94
2022-10-05T01:40:08.423Z,9.88
2022-10-05T01:42:53.860Z,10.06
2022-10-05T01:45:46.569Z,9.77
2022-10-05T01:48:29.299Z,9.64
2022-10-05T01:51:11.092Z,9.82
2022-10-05T01:54:06.306Z,9.82
2022-10-05T01:56:54.439Z,9.65
2022-10-05T01:59:51.769Z,9.87
2022-10-05T02:02:20.592Z,9.70
2022-10-05T02:05:04.381Z,9.55
2022-10-05T02:08:09.572Z,9.56
2022-10-05T02:10:44.138Z,9.88
2022-10-05T02:13:16.719Z,9.06
2022-10-05T02:15:48.329Z,9.53
2022-10-05T02:18:27.067Z,9.49
2022-10-05T02:20:56.519Z,9.68
2022-10-05T02:23:27.093Z,9.87
2022-10-05T02:25:55.386Z,9.47
2022-10-05T02:28:24.760Z,9.61
2022-10-05T02:30:56.697Z,9.60
2022-10-05T02:33:33.001Z,9.22
2022-10-05T02:36:13.565Z,9.47
2022-10-05T02:38:55.548Z,9.34
2022-10-05T02:41:33.743Z,9.11
2022-10-05T02:44:26.604Z,9.24
2022-10-05T02:47:23.779Z,9.42
2022-10-05T02:50:03.533Z,9.27
2022-10-05T02:52:38.734Z,9.36
2022-10-05T02:55:21.095Z,9.42
2022-10-05T02:58:13.840Z,9.24
2022-10-05T03:00:55.371Z,9.05
2022-10-05T03:03:34.448Z,9.12
2022-10-05T03:06:04.354Z,9.12
2022-10-05T03:08:39.047Z,8.96
2022-10-05T03:11:36.663Z,9.05
2022-10-05T03:14:42.846Z,9.02
2022-10-05T03:17:27.565Z,9.31
2022-10-05T03:20:12.907Z,9.33
2022-10-05T03:22:48.149Z,9.34
2022-10-05T03:25:50.239Z,9.01
2022-10-05T03:28:51.227Z,9.01
2022-10-05T03:31:43.765Z,9.42
2022-10-05T03:34:20.391Z,9.25
2022-10-05T03:37:00.342Z,9.29
2022-10-05T03:39:41.044Z,9.36
2022-10-05T03:42:24.428Z,9.35
2022-10-05T03:45:09.252Z,9.23
2022-10-05T03:48:02.845Z,8.95
2022-10-05T03:50:40.711Z,8.93
2022-10-05T03:53:16.277Z,9.09
2022-10-05T03:55:51.734Z,9.15
2022-10-05T03:58:29.730Z,9.31
2022-10-05T04:01:00.817Z,9.12
2022-10-05T04:03:39.604Z,9.25
2022-10-05T04:06:14.544Z,9.44
2022-10-05T04:09:01.838Z,9.52
2022-10-05T04:11:39.365Z,9.67
2022-10-05T04:14:24.837Z,9.68
2022-10-05T04:17:00.720Z,9.43
2022-10-05T04:19:44.062Z,9.49
2022-10-05T04:22:19.579Z,9.57
2022-10-05T04:25:01.382Z,9.44
2022-10-05T04:27:39.154Z,9.44
2022-10-05T04:30:15.559Z,9.39
2022-10-05T04:32:53.738Z,9.73
2022-10-05T04:35:38.769Z,9.92
2022-10-05T04:38:18.821Z,9.96
2022-10-05T04:40:58.231Z,10.06
2022-10-05T04:43:52.313Z,9.77
2022-10-05T04:46:53.389Z,9.76
2022-10-05T04:49:40.842Z,9.88
2022-10-05T04:52:26.859Z,9.97
2022-10-05T04:55:35.137Z,10.08
2022-10-05T04:58:33.603Z,10.13
2022-10-05T05:01:44.551Z,10.67
2022-10-05T05:04:27.040Z,10.76
2022-10-05T05:07:31.202Z,11.01
2022-10-05T05:10:03.332Z,11.09
2022-10-05T05:12:56.946Z,11.26
2022-10-05T05:16:02.448Z,11.13
2022-10-05T05:18:34.681Z,11.16
2022-10-05T05:21:23.933Z,11.30
2022-10-05T05:24:11.464Z,11.36
2022-10-05T05:26:56.651Z,11.54
2022-10-05T05:29:49.026Z,11.23
2022-10-05T05:32:33.811Z,11.13
2022-10-05T05:35:03.440Z,11.50
2022-10-05T05:37:29.908Z,11.53
2022-10-05T05:40:31.972Z,11.45
2022-10-05T05:43:17.004Z,11.54
2022-10-05T05:45:55.047Z,11.47
2022-10-05T05:48:35.232Z,11.49
2022-10-05T05:51:10.581Z,11.43
2022-10-05T05:53:50.502Z,11.60
2022-10-05T05:56:24.063Z,11.59
2022-10-05T05:59:02.278Z,11.56
2022-10-05T06:01:40.724Z,11.29
2022-10-05T06:04:24.189Z,11.62
2022-10-05T06:06:53.789Z,11.67
2022-10-05T06:09:29.654Z,11.81
2022-10-05T06:12:02.631Z,11.80
2022-10-05T06:14:37.181Z,11.43
2022-10-05T06:17:15.721Z,11.46
2022-10-05T06:19:42.990Z,11.34
2022-10-05T06:22:32.809Z,11.38
2022-10-05T06:25:07.740Z,11.69
2022-10-05T06:28:03.701Z,11.43
2022-10-05T06:30:58.886Z,11.79
2022-10-05T06:33:49.200Z,12.11
2022-10-05T06:36:36.817Z,12.05
2022-10-05T06:39:22.389Z,12.09
2022-10-05T06:42:08.130Z,11.75
2022-10-05T06:44:43.517Z,11.97
2022-10-05T06:47:31.375Z,12.22
2022-10-05T06:50:38.429Z,12.50
2022-10-05T06:53:28.388Z,12.60
2022-10-05T06:56:17.505Z,12.01
2022-10-05T06:58:51.215Z,12.44
2022-10-05T07:01:30.769Z,11.95
2022-10-05T07:04:24.231Z,12.18
2022-10-05T07:06:56.959Z,12.44
2022-10-05T07:09:46.224Z,12.38
2022-10-05T07:12:18.575Z,12.28
2022-10-05T07:14:57.845Z,12.14
2022-10-05T07:18:15.043Z,12.38
2022-10-05T07:20:59.481Z,12.43
2022-10-05T07:23:47.550Z,12.62
2022-10-05T07:26:32.289Z,12.74
2022-10-05T07:29:07.541Z,12.19
2022-10-05T07:31:50.079Z,12.40
2022-10-05T07:35:43.332Z,12.53
2022-10-05T07:38:17.471Z,12.89
2022-10-05T07:40:57.109Z,13.30
2022-10-05T07:44:00.429Z,13.21
2022-10-05T07:46:36.952Z,13.10
2022-10-05T07:49:31.549Z,13.64
2022-10-05T07:52:34.542Z,13.86
2022-10-05T07:55:20.646Z,13.78
2022-10-05T07:58:02.385Z,13.05
2022-10-05T08:00:52.398Z,13.33
2022-10-05T08:03:52.281Z,13.60
2022-10-05T08:06:38.841Z,13.70
2022-10-05T08:09:11.264Z,13.79
2022-10-05T08:11:50.459Z,13.81
2022-10-05T08:14:27.120Z,13.45
2022-10-05T08:16:58.597Z,13.21
2022-10-05T08:19:46.873Z,13.35
2022-10-05T08:22:23.467Z,13.28
2022-10-05T08:25:00.242Z,13.32
2022-10-05T08:27:46.761Z,13.53
2022-10-05T08:30:16.282Z,13.40
2022-10-05T08:32:55.216Z,13.36
2022-10-05T08:35:50.025Z,13.35
2022-10-05T08:38:20.174Z,13.56
2022-10-05T08:41:07.730Z,13.62
2022-10-05T08:43:49.932Z,13.72
2022-10-05T08:46:54.171Z,13.82
2022-10-05T08:50:06.986Z,14.01
2022-10-05T08:53:19.893Z,13.81
2022-10-05T08:56:04.617Z,14.04
2022-10-05T08:58:49.970Z,14.11
2022-10-05T09:01:20.704Z,14.41
2022-10-05T09:04:08.956Z,14.40
2022-10-05T09:07:14.442Z,14.30
2022-10-05T09:10:14.830Z,13.75
2022-10-05T09:13:09.749Z,13.91
2022-10-05T09:15:48.219Z,14.24
2022-10-05T09:18:52.498Z,14.57
2022-10-05T09:21:42.171Z,15.39
2022-10-05T09:24:14.727Z,15.46
2022-10-05T09:26:41.161Z,15.28
2022-10-05T09:29:26.263Z,15.75
2022-10-05T09:32:16.433Z,15.76
2022-10-05T09:35:10.222Z,15.77
2022-10-05T09:37:58.496Z,16.48
2022-10-05T09:40:47.548Z,17.52
2022-10-05T09:43:29.085Z,18.51
2022-10-05T09:46:24.174Z,17.83
2022-10-05T09:49:15.133Z,19.02
2022-10-05T09:52:19.332Z,18.75
2022-10-05T09:55:16.560Z,19.17
2022-10-05T09:58:04.050Z,19.71
2022-10-05T10:01:09.020Z,19.58
2022-10-05T10:04:07.894Z,19.29
2022-10-05T10:07:05.133Z,20.35
2022-10-05T10:09:56.520Z,20.33
2022-10-05T10:12:37.928Z,21.63
2022-10-05T10:15:52.483Z,23.43
2022-10-05T10:18:28.345Z,23.03
2022-10-05T10:21:21.565Z,23.01
2022-10-05T10:24:23.615Z,23.18
2022-10-05T10:27:19.955Z,22.79
2022-10-05T10:30:36.610Z,24.34
2022-10-05T10:33:19.405Z,22.11
2022-10-05T10:36:04.392Z,22.20
2022-10-05T10:38:40.175Z,21.89
2022-10-05T10:41:19.709Z,22.66
2022-10-05T10:44:15.133Z,22.59
2022-10-05T10:46:53.859Z,22.60
2022-10-05T10:49:39.171Z,22.75
2022-10-05T10:52:16.378Z,22.82
2022-10-05T10:55:00.883Z,23.46
2022-10-05T10:57:39.938Z,21.21
2022-10-05T11:00:15.706Z,22.69
2022-10-05T11:02:48.111Z,23.27
2022-10-05T11:05:33.301Z,23.64
2022-10-05T11:07:59.709Z,24.45
2022-10-05T11:10:35.033Z,22.41
2022-10-05T11:13:19.663Z,21.42
2022-10-05T11:19:02.162Z,22.08
2022-10-05T11:21:36.382Z,21.62
2022-10-05T11:24:21.528Z,21.52
2022-10-05T11:27:03.422Z,21.50
2022-10-05T11:29:55.881Z,21.26
2022-10-05T11:32:46.834Z,21.58
2022-10-05T11:35:48.865Z,21.38
2022-10-05T11:38:37.949Z,21.50
2022-10-05T11:41:32.842Z,21.34
2022-10-05T11:44:43.949Z,21.85
2022-10-05T11:47:25.229Z,21.12
2022-10-05T11:50:45.937Z,21.16
2022-10-05T11:53:44.476Z,21.20
2022-10-05T11:56:26.746Z,21.10
2022-10-05T11:59:00.089Z,20.79
2022-10-05T12:01:44.656Z,21.05
2022-10-05T12:04:27.435Z,20.68
2022-10-05T12:07:28.943Z,20.88
2022-10-05T12:10:17.170Z,20.74
2022-10-05T12:13:05.336Z,20.35
2022-10-05T12:15:48.009Z,20.43
2022-10-05T12:18:20.551Z,20.30
2022-10-05T12:20:54.391Z,20.35
2022-10-05T12:23:33.478Z,20.17
2022-10-05T12:26:16.349Z,20.57
2022-10-05T12:28:49.937Z,21.79
2022-10-05T12:31:27.013Z,23.09
2022-10-05T12:34:02.182Z,24.07
2022-10-05T12:37:02.499Z,24.38
2022-10-05T12:39:54.539Z,25.19
2022-10-05T12:42:30.241Z,24.66
2022-10-05T12:45:29.191Z,25.78
2022-10-05T12:48:29.689Z,26.54
2022-10-05T12:51:28.542Z,27.26
2022-10-05T12:54:01.681Z,26.32
2022-10-05T12:57:03.533Z,25.82
2022-10-05T12:59:42.170Z,26.03
2022-10-05T13:02:39.065Z,24.74
2022-10-05T13:05:08.655Z,24.61
2022-10-05T13:07:52.483Z,24.69
2022-10-05T13:10:33.337Z,25.27
2022-10-05T13:13:26.004Z,27.15
2022-10-05T13:16:07.756Z,27.37
2022-10-05T13:18:39.310Z,26.28
2022-10-05T13:21:08.431Z,25.66
2022-10-05T13:23:48.261Z,25.60
2022-10-05T13:26:21.949Z,25.52
2022-10-05T13:28:53.906Z,25.30
2022-10-05T13:31:29.260Z,25.27
2022-10-05T13:34:14.267Z,25.55
2022-10-05T13:36:46.685Z,25.28
2022-10-05T13:39:43.828Z,26.44
2022-10-05T13:42:52.312Z,26.36
2022-10-05T13:45:24.569Z,26.06
2022-10-05T13:48:06.877Z,25.87
2022-10-05T13:50:37.978Z,25.88
2022-10-05T13:53:28.845Z,25.90
2022-10-05T13:56:25.713Z,25.82
2022-10-05T13:59:02.962Z,26.38
2022-10-05T14:01:29.357Z,26.12
2022-10-05T14:04:17.426Z,25.70
2022-10-05T14:06:45.313Z,25.47
2022-10-05T14:09:21.952Z,25.71
2022-10-05T14:12:11.791Z,24.93
2022-10-05T14:14:53.537Z,24.76
2022-10-05T14:17:42.476Z,24.18
2022-10-05T14:20:31.330Z,24.88
2022-10-05T14:23:01.931Z,24.99
2022-10-05T14:25:30.153Z,25.12
2022-10-05T14:28:23.949Z,24.05
2022-10-05T14:30:59.416Z,23.47
2022-10-05T14:33:29.155Z,22.80
2022-10-05T14:35:57.710Z,22.52
2022-10-05T14:38:29.642Z,22.66
2022-10-05T14:41:04.234Z,22.29
2022-10-05T14:43:30.920Z,22.18
2022-10-05T14:46:03.362Z,21.92
2022-10-05T14:48:43.169Z,22.11
2022-10-05T14:51:12.305Z,21.96
2022-10-05T14:53:46.477Z,22.21
2022-10-05T14:56:41.933Z,22.03
2022-10-05T14:59:32.263Z,22.20
2022-10-05T15:02:12.530Z,22.43
2022-10-05T15:04:46.010Z,22.15
2022-10-05T15:07:20.577Z,22.16
2022-10-05T15:10:26.982Z,22.29
2022-10-05T15:13:15.539Z,22.37
2022-10-05T15:15:47.787Z,22.12
2022-10-05T15:18:16.963Z,22.16
2022-10-05T15:20:58.820Z,22.04
2022-10-05T15:23:28.037Z,22.07
2022-10-05T15:26:30.048Z,21.98
2022-10-05T15:29:09.364Z,22.10
2022-10-05T15:32:14.442Z,21.93
2022-10-05T15:34:51.602Z,21.89
2022-10-05T15:37:27.454Z,21.99
2022-10-05T15:39:58.682Z,21.89
2022-10-05T15:42:34.653Z,21.93
2022-10-05T15:45:19.638Z,21.96
2022-10-05T15:47:59.335Z,21.96
2022-10-05T15:50:29.188Z,21.79
2022-10-05T15:53:17.106Z,22.12
2022-10-05T15:55:53.108Z,22.00
2022-10-05T15:58:35.587Z,21.91
2022-10-05T16:01:11.499Z,22.08
2022-10-05T16:03:45.651Z,22.06
2022-10-05T16:06:56.354Z,22.05
2022-10-05T16:09:44.618Z,22.23
2022-10-05T16:12:18.538Z,22.22
2022-10-05T16:15:03.732Z,22.61
2022-10-05T16:17:36.608Z,22.13
2022-10-05T16:20:14.916Z,21.92
2022-10-05T16:23:02.827Z,22.11
2022-10-05T16:25:42.992Z,21.98
2022-10-05T16:28:29.114Z,22.00
2022-10-05T16:31:01.720Z,22.06
2022-10-05T16:33:46.597Z,21.69
2022-10-05T16:36:31.972Z,21.80
2022-10-05T16:39:27.429Z,21.88
2022-10-05T16:42:06.384Z,21.83
2022-10-05T16:44:51.149Z,21.74
2022-10-05T16:47:38.451Z,21.71
2022-10-05T16:50:27.499Z,21.54
2022-10-05T16:53:01.895Z,21.46
2022-10-05T16:55:40.720Z,21.35
2022-10-05T16:58:25.506Z,21.24
2022-10-05T17:01:17.461Z,21.14
2022-10-05T17:03:57.070Z,21.06
2022-10-05T17:06:54.999Z,20.95
2022-10-05T17:09:45.532Z,20.57
2022-10-05T17:12:30.226Z,20.63
2022-10-05T17:15:10.134Z,20.49
2022-10-05T17:17:48.990Z,20.43
2022-10-05T17:20:49.118Z,20.13
2022-10-05T17:23:29.158Z,20.14
2022-10-05T17:26:16.006Z,20.14
2022-10-05T17:29:00.327Z,19.70
2022-10-05T17:31:28.925Z,19.63
2022-10-05T17:34:17.935Z,19.50
2022-10-05T17:36:50.389Z,19.49
2022-10-05T17:39:21.076Z,19.52
2022-10-05T17:41:48.388Z,19.22
2022-10-05T17:44:21.144Z,19.41
2022-10-05T17:47:00.598Z,19.49
2022-10-05T17:50:15.046Z,19.11
2022-10-05T17:53:17.980Z,18.78
2022-10-05T17:55:45.819Z,18.82
2022-10-05T17:58:44.736Z,18.84
2022-10-05T18:01:35.654Z,18.92
2022-10-05T18:04:11.320Z,18.93
2022-10-05T18:07:18.929Z,19.09
2022-10-05T18:09:57.546Z,19.20
2022-10-05T18:12:39.925Z,19.26
2022-10-05T18:15:06.436Z,19.43
2022-10-05T18:17:50.552Z,19.44
2022-10-05T18:20:26.484Z,19.52
2022-10-05T18:23:23.755Z,19.60
2022-10-05T18:26:07.300Z,19.59
2022-10-05T18:28:50.840Z,19.61
2022-10-05T18:31:37.282Z,19.51
2022-10-05T18:34:09.872Z,19.64
2022-10-05T18:36:57.658Z,19.62
2022-10-05T18:39:39.252Z,19.55
2022-10-05T18:42:25.204Z,19.66
2022-10-05T18:45:06.311Z,19.77
2022-10-05T18:47:57.669Z,19.67
2022-10-05T18:50:30.747Z,19.73
2022-10-05T18:53:09.959Z,20.02
2022-10-05T18:55:44.237Z,19.88
2022-10-05T18:58:20.172Z,19.86
2022-10-05T19:01:00.066Z,19.93
2022-10-05T19:03:37.425Z,20.06
2022-10-05T19:06:13.809Z,19.89
2022-10-05T19:09:05.118Z,20.02
2022-10-05T19:11:51.361Z,19.85
2022-10-05T19:14:27.028Z,19.91
2022-10-05T19:17:25.789Z,19.86
2022-10-05T19:19:58.338Z,19.80
2022-10-05T19:22:47.438Z,19.96
2022-10-05T19:25:37.778Z,19.78
2022-10-05T19:28:17.478Z,19.65
2022-10-05T19:30:57.992Z,19.61
2022-10-05T19:33:50.738Z,19.44
2022-10-05T19:36:35.283Z,19.59
2022-10-05T19:39:21.161Z,19.49
2022-10-05T19:42:06.333Z,19.27
2022-10-05T19:44:45.191Z,19.17
2022-10-05T19:47:17.440Z,19.29
2022-10-05T19:49:52.803Z,19.34
2022-10-05T19:52:36.205Z,19.34
2022-10-05T19:55:14.643Z,19.35
2022-10-05T19:57:49.639Z,19.18
2022-10-05T20:00:25.664Z,19.28
2022-10-05T20:03:09.003Z,19.25
2022-10-05T20:05:35.815Z,19.30
2022-10-05T20:08:05.308Z,19.34
2022-10-05T20:10:32.608Z,19.26
2022-10-05T20:13:01.302Z,19.25
2022-10-05T20:15:52.131Z,19.16
2022-10-05T20:18:50.104Z,19.24
2022-10-05T20:21:38.517Z,19.33
2022-10-05T20:24:13.823Z,19.51
2022-10-05T20:27:00.114Z,19.60
2022-10-05T20:29:26.666Z,19.44
2022-10-05T20:31:53.548Z,19.28
2022-10-05T20:34:21.597Z,19.26
2022-10-05T20:36:49.356Z,19.11
2022-10-05T20:39:16.867Z,18.94
2022-10-05T20:41:44.690Z,19.07
2022-10-05T20:44:12.582Z,19.02
2022-10-05T20:46:41.543Z,19.00
2022-10-05T20:49:11.438Z,19.01
2022-10-05T20:51:40.030Z,19.04
2022-10-05T20:54:07.700Z,18.82
2022-10-05T20:56:34.375Z,18.80
2022-10-05T20:59:00.959Z,18.84
2022-10-05T21:01:28.765Z,18.84
2022-10-05T21:03:55.891Z,18.95
2022-10-05T21:06:22.510Z,18.83
2022-10-05T21:08:51.286Z,18.85
2022-10-05T21:11:17.883Z,18.83
2022-10-05T21:13:47.546Z,18.53
2022-10-05T21:16:16.677Z,18.49
2022-10-05T21:18:46.667Z,18.49
2022-10-05T21:21:17.386Z,18.55
2022-10-05T21:23:45.307Z,18.56
2022-10-05T21:26:12.055Z,18.27
2022-10-05T21:28:39.948Z,18.26
2022-10-05T21:31:08.746Z,18.29
2022-10-05T21:33:35.906Z,18.18
2022-10-05T21:36:02.545Z,18.18
2022-10-05T21:38:29.647Z,18.14
2022-10-05T21:40:56.397Z,18.23
2022-10-05T21:43:22.921Z,18.12
2022-10-05T21:45:49.500Z,18.37
2022-10-05T21:48:17.410Z,18.37
2022-10-05T21:50:44.698Z,18.29
2022-10-05T21:53:14.062Z,18.26
2022-10-05T21:55:43.345Z,18.14
2022-10-05T21:58:11.429Z,17.95
2022-10-05T22:00:37.916Z,17.99
2022-10-05T22:03:04.680Z,17.94
2022-10-05T22:05:32.059Z,17.92
2022-10-05T22:07:58.660Z,18.05
2022-10-05T22:10:25.334Z,18.25
2022-10-05T22:12:51.789Z,18.33
2022-10-05T22:15:18.690Z,18.25
2022-10-05T22:17:46.028Z,18.03
2022-10-05T22:20:14.340Z,17.94
2022-10-05T22:22:40.956Z,18.09
2022-10-05T22:25:08.042Z,17.89
2022-10-05T22:27:35.678Z,17.56
2022-10-05T22:30:03.609Z,17.45
2022-10-05T22:32:30.065Z,17.43
2022-10-05T22:34:56.574Z,17.43
2022-10-05T22:37:23.211Z,17.56
2022-10-05T22:39:49.639Z,17.41
2022-10-05T22:42:16.131Z,17.39
2022-10-05T22:44:42.582Z,17.29
2022-10-05T22:47:09.230Z,17.41
2022-10-05T22:49:35.670Z,17.41
2022-10-05T22:52:02.121Z,16.97
2022-10-05T22:54:30.473Z,17.13
2022-10-05T22:56:58.272Z,17.26
2022-10-05T22:59:24.759Z,17.20
2022-10-05T23:01:51.313Z,17.25
2022-10-05T23:04:17.874Z,17.44
2022-10-05T23:06:44.311Z,17.34
2022-10-05T23:09:10.773Z,17.22
2022-10-05T23:11:37.230Z,17.20
2022-10-05T23:14:03.690Z,17.17
2022-10-05T23:16:30.327Z,17.22
2022-10-05T23:18:58.274Z,17.32
2022-10-05T23:21:28.070Z,16.96
2022-10-05T23:23:55.545Z,17.23
2022-10-05T23:26:24.709Z,17.21
2022-10-05T23:28:51.415Z,16.62
2022-10-05T23:31:20.367Z,17.04
2022-10-05T23:33:46.930Z,17.08
2022-10-05T23:36:16.394Z,16.55
2022-10-05T23:38:43.193Z,16.77
2022-10-05T23:41:09.926Z,16.74
2022-10-05T23:43:36.873Z,17.00
2022-10-05T23:46:06.134Z,16.97
2022-10-05T23:48:33.775Z,16.69
2022-10-05T23:51:00.439Z,16.78
2022-10-05T23:53:26.915Z,16.46
2022-10-05T23:55:53.966Z,16.79
2022-10-05T23:58:21.698Z,16.44
